sensor_id;sensor_type;location;lat;lon;timestamp;pressure;altitude;pressure_sealevel;temperature;humidity
67517;BME280;68821;59.134;37.894;2023-06-22T00:02:18;100214.25;;;15.81;49.61
67517;BME280;68821;59.134;37.894;2023-06-22T00:04:44;100223.75;;;15.85;49.94
67517;BME280;68821;59.134;37.894;2023-06-22T00:07:10;100228.06;;;15.83;50.28
67517;BME280;68821;59.134;37.894;2023-06-22T00:09:36;100220.28;;;15.83;50.36
67517;BME280;68821;59.134;37.894;2023-06-22T00:12:03;100218.56;;;15.81;50.45
67517;BME280;68821;59.134;37.894;2023-06-22T00:14:29;100206.50;;;15.80;50.45
67517;BME280;68821;59.134;37.894;2023-06-22T00:16:55;100218.56;;;15.81;50.62
67517;BME280;68821;59.134;37.894;2023-06-22T00:19:23;100211.66;;;15.80;50.70
67517;BME280;68821;59.134;37.894;2023-06-22T00:21:50;100210.78;;;15.82;50.76
67517;BME280;68821;59.134;37.894;2023-06-22T00:24:20;100220.31;;;15.80;50.65
67517;BME280;68821;59.134;37.894;2023-06-22T00:26:47;100227.19;;;15.83;50.25
67517;BME280;68821;59.134;37.894;2023-06-22T00:29:13;100222.84;;;15.85;50.24
67517;BME280;68821;59.134;37.894;2023-06-22T00:31:39;100220.25;;;15.85;50.50
67517;BME280;68821;59.134;37.894;2023-06-22T00:34:05;100216.81;;;15.86;50.65
67517;BME280;68821;59.134;37.894;2023-06-22T00:36:32;100211.63;;;15.86;50.75
67517;BME280;68821;59.134;37.894;2023-06-22T00:38:58;100210.75;;;15.87;50.79
67517;BME280;68821;59.134;37.894;2023-06-22T00:41:24;100215.94;;;15.87;51.12
67517;BME280;68821;59.134;37.894;2023-06-22T00:43:54;100224.56;;;15.89;51.22
67517;BME280;68821;59.134;37.894;2023-06-22T00:46:21;100229.75;;;15.89;50.95
67517;BME280;68821;59.134;37.894;2023-06-22T00:48:49;100231.47;;;15.90;51.18
67517;BME280;68821;59.134;37.894;2023-06-22T00:51:16;100231.47;;;15.92;51.11
67517;BME280;68821;59.134;37.894;2023-06-22T00:53:42;100228.84;;;15.93;51.12
67517;BME280;68821;59.134;37.894;2023-06-22T00:56:09;100233.16;;;15.94;51.06
67517;BME280;68821;59.134;37.894;2023-06-22T00:58:38;100257.34;;;15.96;51.17
67517;BME280;68821;59.134;37.894;2023-06-22T01:01:07;100260.00;;;15.92;51.30
67517;BME280;68821;59.134;37.894;2023-06-22T01:03:33;100282.44;;;15.96;51.42
67517;BME280;68821;59.134;37.894;2023-06-22T01:06:08;100284.13;;;15.97;51.52
67517;BME280;68821;59.134;37.894;2023-06-22T01:08:49;100277.25;;;15.96;51.58
67517;BME280;68821;59.134;37.894;2023-06-22T01:11:23;100274.63;;;15.97;51.21
67517;BME280;68821;59.134;37.894;2023-06-22T01:14:00;100281.53;;;16.00;51.36
67517;BME280;68821;59.134;37.894;2023-06-22T01:16:31;100283.25;;;16.01;51.38
67517;BME280;68821;59.134;37.894;2023-06-22T01:19:04;100272.03;;;16.00;51.78
67517;BME280;68821;59.134;37.894;2023-06-22T01:21:35;100273.75;;;16.00;51.63
67517;BME280;68821;59.134;37.894;2023-06-22T01:24:28;100270.31;;;15.98;51.12
67517;BME280;68821;59.134;37.894;2023-06-22T01:29:55;100259.91;;;15.99;51.52
67517;BME280;68821;59.134;37.894;2023-06-22T01:32:35;100259.91;;;16.01;51.70
67517;BME280;68821;59.134;37.894;2023-06-22T01:35:04;100259.91;;;15.99;51.66
67517;BME280;68821;59.134;37.894;2023-06-22T01:37:33;100266.84;;;16.00;51.71
67517;BME280;68821;59.134;37.894;2023-06-22T01:40:01;100259.91;;;16.02;52.02
67517;BME280;68821;59.134;37.894;2023-06-22T01:42:28;100270.28;;;16.04;52.00
67517;BME280;68821;59.134;37.894;2023-06-22T01:44:55;100267.66;;;16.05;52.11
67517;BME280;68821;59.134;37.894;2023-06-22T01:47:23;100271.09;;;16.11;51.81
67517;BME280;68821;59.134;37.894;2023-06-22T01:49:50;100269.34;;;16.11;51.69
67517;BME280;68821;59.134;37.894;2023-06-22T01:52:19;100265.03;;;16.10;51.78
67517;BME280;68821;59.134;37.894;2023-06-22T01:54:47;100267.63;;;16.08;52.00
67517;BME280;68821;59.134;37.894;2023-06-22T01:57:14;100263.31;;;16.11;51.82
67517;BME280;68821;59.134;37.894;2023-06-22T01:59:54;100265.88;;;16.11;52.03
67517;BME280;68821;59.134;37.894;2023-06-22T02:02:28;100258.13;;;16.09;51.87
67517;BME280;68821;59.134;37.894;2023-06-22T02:05:05;100260.72;;;16.07;51.92
67517;BME280;68821;59.134;37.894;2023-06-22T02:07:36;100240.84;;;16.05;51.82
67517;BME280;68821;59.134;37.894;2023-06-22T02:10:06;100247.78;;;16.01;52.36
67517;BME280;68821;59.134;37.894;2023-06-22T02:12:34;100250.44;;;15.98;52.20
67517;BME280;68821;59.134;37.894;2023-06-22T02:15:01;100247.84;;;15.97;52.40
67517;BME280;68821;59.134;37.894;2023-06-22T02:17:28;100252.16;;;15.98;52.13
67517;BME280;68821;59.134;37.894;2023-06-22T02:19:58;100251.28;;;16.00;52.52
67517;BME280;68821;59.134;37.894;2023-06-22T02:22:24;100246.94;;;16.04;52.43
67517;BME280;68821;59.134;37.894;2023-06-22T02:24:51;100240.84;;;16.06;52.71
67517;BME280;68821;59.134;37.894;2023-06-22T02:27:17;100246.88;;;16.08;52.84
67517;BME280;68821;59.134;37.894;2023-06-22T02:29:43;100249.47;;;16.10;52.72
67517;BME280;68821;59.134;37.894;2023-06-22T02:32:09;100249.44;;;16.12;52.78
67517;BME280;68821;59.134;37.894;2023-06-22T02:34:35;100252.94;;;16.09;53.02
67517;BME280;68821;59.134;37.894;2023-06-22T02:37:02;100238.28;;;16.05;53.14
67517;BME280;68821;59.134;37.894;2023-06-22T02:39:28;100243.50;;;15.99;53.04
67517;BME280;68821;59.134;37.894;2023-06-22T02:41:54;100241.81;;;15.95;53.25
67517;BME280;68821;59.134;37.894;2023-06-22T02:44:21;100244.44;;;15.92;53.56
67517;BME280;68821;59.134;37.894;2023-06-22T02:46:47;100245.28;;;15.89;53.35
67517;BME280;68821;59.134;37.894;2023-06-22T02:49:13;100246.19;;;15.89;53.57
67517;BME280;68821;59.134;37.894;2023-06-22T02:51:46;100260.84;;;15.89;53.76
67517;BME280;68821;59.134;37.894;2023-06-22T02:54:12;100261.69;;;15.91;53.72
67517;BME280;68821;59.134;37.894;2023-06-22T02:56:38;100273.81;;;15.92;53.80
67517;BME280;68821;59.134;37.894;2023-06-22T02:59:06;100271.22;;;15.92;53.92
67517;BME280;68821;59.134;37.894;2023-06-22T03:01:32;100272.06;;;15.91;54.12
67517;BME280;68821;59.134;37.894;2023-06-22T03:04:03;100277.25;;;15.91;54.02
67517;BME280;68821;59.134;37.894;2023-06-22T03:06:30;100277.25;;;15.91;54.17
67517;BME280;68821;59.134;37.894;2023-06-22T03:09:02;100268.66;;;15.87;54.86
67517;BME280;68821;59.134;37.894;2023-06-22T03:11:30;100260.88;;;15.84;54.80
67517;BME280;68821;59.134;37.894;2023-06-22T03:13:57;100258.28;;;15.83;55.12
67517;BME280;68821;59.134;37.894;2023-06-22T03:16:25;100251.44;;;15.73;55.88
67517;BME280;68821;59.134;37.894;2023-06-22T03:18:51;100259.22;;;15.73;56.02
67517;BME280;68821;59.134;37.894;2023-06-22T03:21:21;100275.63;;;15.68;56.15
67517;BME280;68821;59.134;37.894;2023-06-22T03:23:47;100268.75;;;15.64;56.30
67517;BME280;68821;59.134;37.894;2023-06-22T03:26:16;100259.25;;;15.60;56.97
67517;BME280;68821;59.134;37.894;2023-06-22T03:28:43;100267.06;;;15.54;56.91
67517;BME280;68821;59.134;37.894;2023-06-22T03:31:09;100257.63;;;15.47;57.67
67517;BME280;68821;59.134;37.894;2023-06-22T03:33:35;100247.28;;;15.38;57.86
67517;BME280;68821;59.134;37.894;2023-06-22T03:36:01;100252.47;;;15.38;58.35
67517;BME280;68821;59.134;37.894;2023-06-22T03:38:27;100249.91;;;15.36;58.33
67517;BME280;68821;59.134;37.894;2023-06-22T03:40:56;100249.91;;;15.33;59.11
67517;BME280;68821;59.134;37.894;2023-06-22T03:43:23;100259.41;;;15.31;59.17
67517;BME280;68821;59.134;37.894;2023-06-22T03:45:49;100249.94;;;15.30;59.18
67517;BME280;68821;59.134;37.894;2023-06-22T03:48:15;100263.78;;;15.26;59.63
67517;BME280;68821;59.134;37.894;2023-06-22T03:50:41;100249.13;;;15.20;60.04
67517;BME280;68821;59.134;37.894;2023-06-22T03:53:07;100256.91;;;15.16;60.22
67517;BME280;68821;59.134;37.894;2023-06-22T03:55:34;100250.88;;;15.12;59.93
67517;BME280;68821;59.134;37.894;2023-06-22T03:58:00;100243.13;;;15.07;60.14
67517;BME280;68821;59.134;37.894;2023-06-22T04:00:34;100250.91;;;15.07;60.71
67517;BME280;68821;59.134;37.894;2023-06-22T04:03:00;100257.78;;;15.08;60.42
67517;BME280;68821;59.134;37.894;2023-06-22T04:05:26;100269.00;;;15.12;60.83
67517;BME280;68821;59.134;37.894;2023-06-22T04:07:52;100268.97;;;15.15;61.22
67517;BME280;68821;59.134;37.894;2023-06-22T04:10:18;100276.75;;;15.20;61.44
67517;BME280;68821;59.134;37.894;2023-06-22T04:12:44;100274.13;;;15.26;61.29
67517;BME280;68821;59.134;37.894;2023-06-22T04:15:10;100265.47;;;15.28;60.89
67517;BME280;68821;59.134;37.894;2023-06-22T04:17:37;100258.56;;;15.32;61.51
67517;BME280;68821;59.134;37.894;2023-06-22T04:20:04;100255.09;;;15.35;61.48
67517;BME280;68821;59.134;37.894;2023-06-22T04:22:30;100256.81;;;15.40;61.47
67517;BME280;68821;59.134;37.894;2023-06-22T04:24:56;100254.19;;;15.43;61.69
67517;BME280;68821;59.134;37.894;2023-06-22T04:27:22;100259.38;;;15.46;61.99
67517;BME280;68821;59.134;37.894;2023-06-22T04:29:49;100270.56;;;15.47;61.50
67517;BME280;68821;59.134;37.894;2023-06-22T04:32:15;100269.72;;;15.45;61.96
67517;BME280;68821;59.134;37.894;2023-06-22T04:34:42;100269.72;;;15.43;61.94
67517;BME280;68821;59.134;37.894;2023-06-22T04:37:08;100270.56;;;15.45;61.49
67517;BME280;68821;59.134;37.894;2023-06-22T04:39:34;100262.84;;;15.42;62.30
67517;BME280;68821;59.134;37.894;2023-06-22T04:42:01;100252.47;;;15.42;62.52
67517;BME280;68821;59.134;37.894;2023-06-22T04:44:27;100235.19;;;15.44;62.39
67517;BME280;68821;59.134;37.894;2023-06-22T04:46:57;100223.94;;;15.45;62.58
67517;BME280;68821;59.134;37.894;2023-06-22T04:49:30;100207.53;;;15.45;62.42
67517;BME280;68821;59.134;37.894;2023-06-22T04:52:04;100188.53;;;15.49;62.90
67517;BME280;68821;59.134;37.894;2023-06-22T04:54:30;100165.16;;;15.55;62.33
67517;BME280;68821;59.134;37.894;2023-06-22T04:57:05;100147.84;;;15.60;62.26
67517;BME280;68821;59.134;37.894;2023-06-22T04:59:36;100136.56;;;15.64;61.98
67517;BME280;68821;59.134;37.894;2023-06-22T05:02:05;100142.66;;;15.65;61.86
67517;BME280;68821;59.134;37.894;2023-06-22T05:04:32;100152.97;;;15.69;62.08
67517;BME280;68821;59.134;37.894;2023-06-22T05:07:02;100164.16;;;15.75;62.06
67517;BME280;68821;59.134;37.894;2023-06-22T05:09:29;100178.84;;;15.79;62.25
67517;BME280;68821;59.134;37.894;2023-06-22T05:11:55;100193.53;;;15.80;62.35
67517;BME280;68821;59.134;37.894;2023-06-22T05:14:25;100209.94;;;15.79;62.31
67517;BME280;68821;59.134;37.894;2023-06-22T05:16:51;100214.31;;;15.74;62.42
67517;BME280;68821;59.134;37.894;2023-06-22T05:19:17;100220.34;;;15.66;62.49
67517;BME280;68821;59.134;37.894;2023-06-22T05:21:43;100226.47;;;15.59;62.61
67517;BME280;68821;59.134;37.894;2023-06-22T05:24:10;100229.09;;;15.53;62.89
67517;BME280;68821;59.134;37.894;2023-06-22T05:26:36;100227.38;;;15.47;63.18
67517;BME280;68821;59.134;37.894;2023-06-22T05:29:03;100236.91;;;15.45;63.17
67517;BME280;68821;59.134;37.894;2023-06-22T05:31:29;100235.16;;;15.47;63.05
67517;BME280;68821;59.134;37.894;2023-06-22T05:33:55;100219.63;;;15.46;62.95
67517;BME280;68821;59.134;37.894;2023-06-22T05:36:22;100213.63;;;15.42;63.16
67517;BME280;68821;59.134;37.894;2023-06-22T05:38:56;100215.28;;;15.49;63.51
67517;BME280;68821;59.134;37.894;2023-06-22T05:41:23;100210.09;;;15.51;63.27
67517;BME280;68821;59.134;37.894;2023-06-22T05:43:49;100203.19;;;15.50;63.07
67517;BME280;68821;59.134;37.894;2023-06-22T05:46:15;100194.59;;;15.46;63.75
67517;BME280;68821;59.134;37.894;2023-06-22T05:48:41;100210.13;;;15.45;63.76
67517;BME280;68821;59.134;37.894;2023-06-22T05:51:08;100209.28;;;15.44;63.87
67517;BME280;68821;59.134;37.894;2023-06-22T05:53:34;100203.25;;;15.42;63.70
67517;BME280;68821;59.134;37.894;2023-06-22T05:56:00;100208.44;;;15.39;64.04
67517;BME280;68821;59.134;37.894;2023-06-22T05:58:26;100193.78;;;15.38;64.01
67517;BME280;68821;59.134;37.894;2023-06-22T06:00:52;100188.59;;;15.37;63.99
67517;BME280;68821;59.134;37.894;2023-06-22T06:03:18;100191.19;;;15.38;64.35
67517;BME280;68821;59.134;37.894;2023-06-22T06:05:44;100191.16;;;15.40;64.47
67517;BME280;68821;59.134;37.894;2023-06-22T06:08:11;100196.34;;;15.40;64.47
67517;BME280;68821;59.134;37.894;2023-06-22T06:10:38;100196.38;;;15.35;64.14
67517;BME280;68821;59.134;37.894;2023-06-22T06:13:04;100209.31;;;15.35;64.31
67517;BME280;68821;59.134;37.894;2023-06-22T06:15:31;100214.53;;;15.32;64.36
67517;BME280;68821;59.134;37.894;2023-06-22T06:17:58;100205.88;;;15.32;64.58
67517;BME280;68821;59.134;37.894;2023-06-22T06:20:25;100211.91;;;15.35;64.80
67517;BME280;68821;59.134;37.894;2023-06-22T06:22:52;100214.50;;;15.35;64.92
67517;BME280;68821;59.134;37.894;2023-06-22T06:25:18;100215.34;;;15.39;65.00
67517;BME280;68821;59.134;37.894;2023-06-22T06:27:46;100211.84;;;15.46;64.89
67517;BME280;68821;59.134;37.894;2023-06-22T06:30:13;100206.63;;;15.55;65.16
67517;BME280;68821;59.134;37.894;2023-06-22T06:32:41;100199.66;;;15.62;64.98
67517;BME280;68821;59.134;37.894;2023-06-22T06:35:08;100212.56;;;15.68;64.75
67517;BME280;68821;59.134;37.894;2023-06-22T06:37:39;100203.94;;;15.72;65.14
67517;BME280;68821;59.134;37.894;2023-06-22T06:40:10;100197.84;;;15.79;64.85
67517;BME280;68821;59.134;37.894;2023-06-22T06:42:41;100195.19;;;15.87;65.16
67517;BME280;68821;59.134;37.894;2023-06-22T06:45:10;100193.44;;;15.91;64.26
67517;BME280;68821;59.134;37.894;2023-06-22T06:47:36;100186.50;;;15.91;64.19
67517;BME280;68821;59.134;37.894;2023-06-22T06:50:04;100187.41;;;15.88;64.36
67517;BME280;68821;59.134;37.894;2023-06-22T06:52:30;100191.69;;;15.93;64.86
67517;BME280;68821;59.134;37.894;2023-06-22T06:54:56;100195.16;;;15.92;65.15
67517;BME280;68821;59.134;37.894;2023-06-22T06:57:22;100201.22;;;15.91;65.23
67517;BME280;68821;59.134;37.894;2023-06-22T06:59:48;100194.31;;;15.89;65.29
67517;BME280;68821;59.134;37.894;2023-06-22T07:02:18;100187.41;;;15.90;65.24
67517;BME280;68821;59.134;37.894;2023-06-22T07:04:44;100193.44;;;15.94;65.44
67517;BME280;68821;59.134;37.894;2023-06-22T07:07:10;100184.81;;;15.90;65.08
67517;BME280;68821;59.134;37.894;2023-06-22T07:09:36;100188.19;;;15.98;65.36
67517;BME280;68821;59.134;37.894;2023-06-22T07:12:03;100180.34;;;16.06;65.46
67517;BME280;68821;59.134;37.894;2023-06-22T07:14:29;100183.63;;;16.25;65.23
67517;BME280;68821;59.134;37.894;2023-06-22T07:16:55;100180.84;;;16.43;64.99
67517;BME280;68821;59.134;37.894;2023-06-22T07:19:25;100173.72;;;16.61;64.83
67517;BME280;68821;59.134;37.894;2023-06-22T07:21:51;100177.94;;;16.74;64.47
67517;BME280;68821;59.134;37.894;2023-06-22T07:24:17;100177.00;;;16.81;64.21
67517;BME280;68821;59.134;37.894;2023-06-22T07:26:49;100176.13;;;16.82;64.08
67517;BME280;68821;59.134;37.894;2023-06-22T07:29:17;100172.66;;;16.79;64.02
67517;BME280;68821;59.134;37.894;2023-06-22T07:31:44;100170.16;;;16.73;64.20
67517;BME280;68821;59.134;37.894;2023-06-22T07:34:10;100152.81;;;16.73;64.16
67517;BME280;68821;59.134;37.894;2023-06-22T07:36:36;100163.09;;;16.85;64.02
67517;BME280;68821;59.134;37.894;2023-06-22T07:39:03;100167.34;;;16.94;63.68
67517;BME280;68821;59.134;37.894;2023-06-22T07:41:30;100161.25;;;16.94;63.70
67517;BME280;68821;59.134;37.894;2023-06-22T07:43:56;100153.47;;;16.95;63.88
67517;BME280;68821;59.134;37.894;2023-06-22T07:46:22;100153.44;;;16.98;63.89
67517;BME280;68821;59.134;37.894;2023-06-22T07:48:49;100162.06;;;17.00;63.94
67517;BME280;68821;59.134;37.894;2023-06-22T07:51:15;100146.53;;;16.96;63.82
67517;BME280;68821;59.134;37.894;2023-06-22T07:53:42;100149.16;;;16.94;63.74
67517;BME280;68821;59.134;37.894;2023-06-22T07:56:11;100155.28;;;16.90;63.50
67517;BME280;68821;59.134;37.894;2023-06-22T07:58:37;100147.53;;;16.85;63.77
67517;BME280;68821;59.134;37.894;2023-06-22T08:01:04;100143.22;;;16.83;63.84
67517;BME280;68821;59.134;37.894;2023-06-22T08:03:30;100142.31;;;16.87;63.92
67517;BME280;68821;59.134;37.894;2023-06-22T08:05:56;100147.47;;;16.90;63.59
67517;BME280;68821;59.134;37.894;2023-06-22T08:08:25;100145.72;;;16.91;63.72
67517;BME280;68821;59.134;37.894;2023-06-22T08:10:51;100147.44;;;16.92;63.56
67517;BME280;68821;59.134;37.894;2023-06-22T08:13:17;100142.22;;;16.95;63.35
67517;BME280;68821;59.134;37.894;2023-06-22T08:15:43;100142.25;;;16.92;63.14
67517;BME280;68821;59.134;37.894;2023-06-22T08:18:09;100150.09;;;16.87;63.32
67517;BME280;68821;59.134;37.894;2023-06-22T08:20:35;100136.28;;;16.85;63.39
67517;BME280;68821;59.134;37.894;2023-06-22T08:23:01;100142.31;;;16.85;63.37
67517;BME280;68821;59.134;37.894;2023-06-22T08:25:35;100145.84;;;16.81;63.30
67517;BME280;68821;59.134;37.894;2023-06-22T08:28:02;100140.75;;;16.70;63.11
67517;BME280;68821;59.134;37.894;2023-06-22T08:30:28;100139.97;;;16.64;63.30
67517;BME280;68821;59.134;37.894;2023-06-22T08:32:54;100135.66;;;16.63;63.36
67517;BME280;68821;59.134;37.894;2023-06-22T08:35:22;100131.19;;;16.76;63.27
67517;BME280;68821;59.134;37.894;2023-06-22T08:37:49;100133.59;;;16.93;62.71
67517;BME280;68821;59.134;37.894;2023-06-22T08:40:21;100142.06;;;17.05;62.28
67517;BME280;68821;59.134;37.894;2023-06-22T08:42:48;100137.69;;;17.09;61.81
67517;BME280;68821;59.134;37.894;2023-06-22T08:45:15;100138.66;;;17.02;61.84
67517;BME280;68821;59.134;37.894;2023-06-22T08:47:41;100147.44;;;16.93;61.90
67517;BME280;68821;59.134;37.894;2023-06-22T08:50:09;100144.06;;;16.83;61.91
67517;BME280;68821;59.134;37.894;2023-06-22T08:52:36;100137.22;;;16.76;62.01
67517;BME280;68821;59.134;37.894;2023-06-22T08:55:02;100139.88;;;16.72;62.03
67517;BME280;68821;59.134;37.894;2023-06-22T08:57:28;100134.72;;;16.70;62.25
67517;BME280;68821;59.134;37.894;2023-06-22T08:59:56;100131.22;;;16.71;61.97
67517;BME280;68821;59.134;37.894;2023-06-22T09:02:27;100121.75;;;16.68;61.74
67517;BME280;68821;59.134;37.894;2023-06-22T09:04:57;100124.34;;;16.67;61.66
67517;BME280;68821;59.134;37.894;2023-06-22T09:07:24;100131.22;;;16.73;61.77
67517;BME280;68821;59.134;37.894;2023-06-22T09:09:50;100125.94;;;16.82;61.51
67517;BME280;68821;59.134;37.894;2023-06-22T09:12:17;100124.06;;;16.92;61.16
67517;BME280;68821;59.134;37.894;2023-06-22T09:14:46;100116.25;;;16.96;61.17
67517;BME280;68821;59.134;37.894;2023-06-22T09:17:12;100116.19;;;16.98;60.98
67517;BME280;68821;59.134;37.894;2023-06-22T09:19:39;100125.47;;;17.16;61.00
67517;BME280;68821;59.134;37.894;2023-06-22T09:22:05;100110.50;;;17.33;61.08
67517;BME280;68821;59.134;37.894;2023-06-22T09:24:32;100113.66;;;17.54;60.45
67517;BME280;68821;59.134;37.894;2023-06-22T09:26:58;100119.34;;;17.76;60.22
67517;BME280;68821;59.134;37.894;2023-06-22T09:29:24;100116.47;;;17.94;60.05
67517;BME280;68821;59.134;37.894;2023-06-22T09:31:50;100103.22;;;18.06;59.62
67517;BME280;68821;59.134;37.894;2023-06-22T09:34:19;100109.94;;;18.20;59.41
67517;BME280;68821;59.134;37.894;2023-06-22T09:36:46;100112.16;;;18.40;59.03
67517;BME280;68821;59.134;37.894;2023-06-22T09:39:12;100117.16;;;18.50;58.67
67517;BME280;68821;59.134;37.894;2023-06-22T09:41:38;100109.19;;;18.58;58.59
67517;BME280;68821;59.134;37.894;2023-06-22T09:44:04;100098.53;;;18.70;58.50
67517;BME280;68821;59.134;37.894;2023-06-22T09:46:30;100099.88;;;18.90;58.12
67517;BME280;68821;59.134;37.894;2023-06-22T09:48:56;100117.84;;;19.01;57.62
67517;BME280;68821;59.134;37.894;2023-06-22T09:51:22;100113.47;;;19.03;57.42
67517;BME280;68821;59.134;37.894;2023-06-22T09:53:52;100123.13;;;18.99;57.36
67517;BME280;68821;59.134;37.894;2023-06-22T09:56:22;100118.88;;;18.95;57.23
67517;BME280;68821;59.134;37.894;2023-06-22T09:58:48;100122.59;;;18.83;57.10
67517;BME280;68821;59.134;37.894;2023-06-22T10:01:16;100113.31;;;18.68;57.27
67517;BME280;68821;59.134;37.894;2023-06-22T10:03:42;100112.56;;;18.62;57.78
67517;BME280;68821;59.134;37.894;2023-06-22T10:06:08;100103.88;;;18.64;57.65
67517;BME280;68821;59.134;37.894;2023-06-22T10:08:35;100096.78;;;18.69;57.28
67517;BME280;68821;59.134;37.894;2023-06-22T10:11:03;100095.00;;;18.73;57.63
67517;BME280;68821;59.134;37.894;2023-06-22T10:13:29;100094.06;;;18.76;57.21
67517;BME280;68821;59.134;37.894;2023-06-22T10:15:55;100091.25;;;18.86;56.95
67517;BME280;68821;59.134;37.894;2023-06-22T10:18:21;100095.38;;;18.97;56.75
67517;BME280;68821;59.134;37.894;2023-06-22T10:20:50;100092.75;;;18.98;56.49
67517;BME280;68821;59.134;37.894;2023-06-22T10:23:18;100097.00;;;19.02;56.63
67517;BME280;68821;59.134;37.894;2023-06-22T10:25:44;100101.38;;;19.00;56.42
67517;BME280;68821;59.134;37.894;2023-06-22T10:28:10;100106.81;;;18.91;56.22
67517;BME280;68821;59.134;37.894;2023-06-22T10:30:36;100094.91;;;18.76;56.17
67517;BME280;68821;59.134;37.894;2023-06-22T10:33:02;100113.41;;;18.64;56.37
67517;BME280;68821;59.134;37.894;2023-06-22T10:35:28;100107.72;;;18.45;56.68
67517;BME280;68821;59.134;37.894;2023-06-22T10:37:54;100109.75;;;18.29;56.87
67517;BME280;68821;59.134;37.894;2023-06-22T10:40:21;100107.38;;;18.17;57.05
67517;BME280;68821;59.134;37.894;2023-06-22T10:42:47;100099.75;;;18.07;57.54
67517;BME280;68821;59.134;37.894;2023-06-22T10:45:15;100099.88;;;18.01;57.10
67517;BME280;68821;59.134;37.894;2023-06-22T10:47:41;100090.41;;;17.97;57.28
67517;BME280;68821;59.134;37.894;2023-06-22T10:50:08;100095.72;;;17.91;57.53
67517;BME280;68821;59.134;37.894;2023-06-22T10:52:34;100091.50;;;17.84;57.73
67517;BME280;68821;59.134;37.894;2023-06-22T10:55:00;100089.97;;;17.72;57.78
67517;BME280;68821;59.134;37.894;2023-06-22T10:57:26;100086.53;;;17.70;57.75
67517;BME280;68821;59.134;37.894;2023-06-22T10:59:52;100089.16;;;17.67;57.96
67517;BME280;68821;59.134;37.894;2023-06-22T11:02:18;100085.75;;;17.63;57.93
67517;BME280;68821;59.134;37.894;2023-06-22T11:04:44;100093.53;;;17.65;58.04
67517;BME280;68821;59.134;37.894;2023-06-22T11:07:11;100096.13;;;17.66;58.13
67517;BME280;68821;59.134;37.894;2023-06-22T11:09:37;100099.56;;;17.67;57.79
67517;BME280;68821;59.134;37.894;2023-06-22T11:12:05;100103.00;;;17.67;58.19
67517;BME280;68821;59.134;37.894;2023-06-22T11:14:31;100098.72;;;17.65;58.07
67517;BME280;68821;59.134;37.894;2023-06-22T11:16:59;100097.03;;;17.64;58.02
67517;BME280;68821;59.134;37.894;2023-06-22T11:19:25;100101.25;;;17.69;58.09
67517;BME280;68821;59.134;37.894;2023-06-22T11:21:51;100105.41;;;17.80;58.14
67517;BME280;68821;59.134;37.894;2023-06-22T11:24:22;100100.94;;;17.91;58.03
67517;BME280;68821;59.134;37.894;2023-06-22T11:26:48;100106.88;;;17.98;57.78
67517;BME280;68821;59.134;37.894;2023-06-22T11:29:14;100102.50;;;17.98;57.71
67517;BME280;68821;59.134;37.894;2023-06-22T11:31:40;100097.38;;;17.97;57.58
67517;BME280;68821;59.134;37.894;2023-06-22T11:34:08;100094.88;;;17.91;57.73
67517;BME280;68821;59.134;37.894;2023-06-22T11:36:34;100089.78;;;17.83;58.01
67517;BME280;68821;59.134;37.894;2023-06-22T11:39:01;100090.75;;;17.76;58.08
67517;BME280;68821;59.134;37.894;2023-06-22T11:41:27;100082.19;;;17.69;58.13
67517;BME280;68821;59.134;37.894;2023-06-22T11:43:53;100080.53;;;17.65;58.25
67517;BME280;68821;59.134;37.894;2023-06-22T11:46:19;100078.88;;;17.59;58.32
67517;BME280;68821;59.134;37.894;2023-06-22T11:48:46;100069.56;;;17.47;58.46
67517;BME280;68821;59.134;37.894;2023-06-22T11:51:12;100049.00;;;17.34;58.63
67517;BME280;68821;59.134;37.894;2023-06-22T11:53:38;100059.44;;;17.30;58.88
67517;BME280;68821;59.134;37.894;2023-06-22T11:56:04;100059.50;;;17.27;58.95
67517;BME280;68821;59.134;37.894;2023-06-22T11:58:30;100064.56;;;17.35;59.05
67517;BME280;68821;59.134;37.894;2023-06-22T12:00:56;100055.78;;;17.42;58.98
67517;BME280;68821;59.134;37.894;2023-06-22T12:03:22;100059.22;;;17.44;58.86
67517;BME280;68821;59.134;37.894;2023-06-22T12:05:49;100056.47;;;17.54;58.88
67517;BME280;68821;59.134;37.894;2023-06-22T12:08:17;100045.81;;;17.67;58.97
67517;BME280;68821;59.134;37.894;2023-06-22T12:10:43;100045.53;;;17.86;58.64
67517;BME280;68821;59.134;37.894;2023-06-22T12:13:09;100044.16;;;18.13;58.16
67517;BME280;68821;59.134;37.894;2023-06-22T12:15:35;100041.97;;;18.35;57.80
67517;BME280;68821;59.134;37.894;2023-06-22T12:18:01;100052.06;;;18.50;57.48
67517;BME280;68821;59.134;37.894;2023-06-22T12:20:28;100038.91;;;18.58;57.51
67517;BME280;68821;59.134;37.894;2023-06-22T12:22:54;100038.66;;;18.69;57.21
67517;BME280;68821;59.134;37.894;2023-06-22T12:25:22;100028.94;;;18.77;57.22
67517;BME280;68821;59.134;37.894;2023-06-22T12:27:48;100030.50;;;18.86;56.84
67517;BME280;68821;59.134;37.894;2023-06-22T12:30:16;100030.31;;;18.94;56.66
67517;BME280;68821;59.134;37.894;2023-06-22T12:32:42;100031.03;;;19.00;56.65
67517;BME280;68821;59.134;37.894;2023-06-22T12:35:08;100038.69;;;19.06;56.61
67517;BME280;68821;59.134;37.894;2023-06-22T12:37:43;100034.41;;;19.05;56.23
67517;BME280;68821;59.134;37.894;2023-06-22T12:40:10;100035.31;;;19.03;56.40
67517;BME280;68821;59.134;37.894;2023-06-22T12:42:36;100042.16;;;19.07;56.48
67517;BME280;68821;59.134;37.894;2023-06-22T12:45:02;100046.53;;;19.05;56.42